North Olmsted, Ohio
Current Conditions -  °F | °C
As of 5:02 PM on Thursday 27 Nov 2014 (Local Time) from KCLE Reporting Station
Light Snow Light Snow  
Wind Chill: 22°   Ceiling: 2700
Heat Index: 30°   Visibility: 3mi
Dew Point: 26°   Wind: 9mph
Humidity: 85%   Direction: 240°WSW
Pressure: 30.2"   Gusts: NA
Location:  41.41°N, 81.92°W
Report Text: KCLE 272202Z 24008KT 3SM -SN BR SCT021 BKN027 OVC050 M01/M03 A3020 RMK AO2 P0000 T10111033 $
Loading
Personal Weather Stations






























Interactive Weather Map New forecast layout! Learn more

10-Day Weather Forecast

Advertisements
Track Severe Weather on mobile